createdAt,value
2022-07-29T00:02:24.491Z,20.14
2022-07-29T00:04:51.547Z,20.10
2022-07-29T00:07:18.667Z,20.10
2022-07-29T00:09:51.556Z,20.06
2022-07-29T00:12:25.177Z,20.07
2022-07-29T00:14:53.966Z,20.10
2022-07-29T00:17:21.142Z,20.12
2022-07-29T00:19:48.226Z,20.08
2022-07-29T00:22:15.839Z,20.08
2022-07-29T00:24:43.349Z,20.09
2022-07-29T00:32:36.829Z,19.89
2022-07-29T00:35:23.001Z,19.87
2022-07-29T00:37:50.064Z,19.85
2022-07-29T00:40:17.851Z,19.85
2022-07-29T00:42:45.645Z,19.87
2022-07-29T00:45:13.315Z,19.91
2022-07-29T00:47:40.495Z,19.89
2022-07-29T00:50:09.258Z,19.83
2022-07-29T00:57:02.750Z,19.88
2022-07-29T01:00:19.864Z,19.87
2022-07-29T01:07:13.730Z,19.94
2022-07-29T01:09:46.623Z,19.95
2022-07-29T01:12:19.845Z,19.98
2022-07-29T01:14:48.840Z,20.01
2022-07-29T01:17:25.725Z,20.02
2022-07-29T01:19:52.747Z,20.00
2022-07-29T01:22:32.341Z,19.99
2022-07-29T01:25:22.466Z,19.99
2022-07-29T01:27:49.572Z,19.96
2022-07-29T01:30:17.044Z,19.96
2022-07-29T01:32:48.473Z,19.96
2022-07-29T01:35:22.114Z,19.94
2022-07-29T01:37:52.013Z,19.93
2022-07-29T01:40:28.171Z,19.91
2022-07-29T01:42:59.062Z,19.88
2022-07-29T01:45:26.133Z,19.89
2022-07-29T01:48:13.966Z,19.88
2022-07-29T01:50:45.264Z,19.86
2022-07-29T01:53:13.648Z,19.85
2022-07-29T01:55:42.828Z,19.82
2022-07-29T01:58:11.791Z,19.77
2022-07-29T02:00:40.275Z,19.73
2022-07-29T02:03:12.331Z,19.70
2022-07-29T02:05:42.069Z,19.69
2022-07-29T02:08:10.776Z,19.66
2022-07-29T02:10:39.111Z,19.69
2022-07-29T02:13:06.735Z,19.54
2022-07-29T02:15:35.031Z,19.44
2022-07-29T02:18:04.511Z,19.34
2022-07-29T02:20:32.126Z,19.33
2022-07-29T02:23:00.754Z,19.22
2022-07-29T02:25:36.981Z,19.14
2022-07-29T02:32:50.266Z,18.98
2022-07-29T02:35:17.865Z,18.99
2022-07-29T02:37:46.573Z,19.07
2022-07-29T02:40:15.588Z,19.08
2022-07-29T02:42:44.830Z,19.09
2022-07-29T02:45:11.941Z,19.10
2022-07-29T02:47:43.604Z,19.08
2022-07-29T02:50:13.415Z,19.05
2022-07-29T02:52:53.406Z,19.02
2022-07-29T03:17:47.392Z,18.97
2022-07-29T03:20:14.713Z,18.95
2022-07-29T03:22:44.542Z,18.95
2022-07-29T03:34:18.306Z,18.86
2022-07-29T03:36:45.809Z,18.83
2022-07-29T03:39:13.021Z,18.80
2022-07-29T03:41:42.649Z,18.77
2022-07-29T03:44:09.962Z,18.76
2022-07-29T03:46:40.062Z,18.77
2022-07-29T03:49:09.291Z,18.77
2022-07-29T03:51:36.463Z,18.79
2022-07-29T03:54:09.533Z,18.82
2022-07-29T03:56:39.383Z,18.81
2022-07-29T03:59:06.844Z,18.78
2022-07-29T04:01:34.568Z,18.76
2022-07-29T04:04:05.657Z,18.78
2022-07-29T04:06:42.549Z,18.81
2022-07-29T04:09:10.144Z,18.80
2022-07-29T04:12:02.712Z,18.79
2022-07-29T04:14:25.741Z,18.80
2022-07-29T04:16:53.912Z,18.81
2022-07-29T04:19:21.021Z,18.76
2022-07-29T04:21:48.156Z,18.78
2022-07-29T04:24:15.624Z,18.79
2022-07-29T04:26:43.411Z,18.81
2022-07-29T04:29:10.457Z,18.80
2022-07-29T04:31:37.618Z,18.78
2022-07-29T04:34:04.789Z,18.75
2022-07-29T04:36:31.880Z,18.73
2022-07-29T04:38:59.001Z,18.72
2022-07-29T04:41:32.968Z,18.67
2022-07-29T04:44:05.953Z,18.56
2022-07-29T04:46:34.802Z,18.48
2022-07-29T04:49:02.162Z,18.48
2022-07-29T04:51:29.228Z,18.49
2022-07-29T04:53:56.296Z,18.48
2022-07-29T04:56:23.491Z,18.47
2022-07-29T04:58:50.603Z,18.47
2022-07-29T05:01:17.879Z,18.51
2022-07-29T05:03:46.131Z,18.52
2022-07-29T05:06:13.241Z,18.52
2022-07-29T05:08:41.880Z,18.52
2022-07-29T05:11:11.772Z,18.54
2022-07-29T05:13:46.121Z,18.58
2022-07-29T05:16:14.797Z,18.58
2022-07-29T05:18:43.226Z,18.65
2022-07-29T05:21:10.381Z,18.57
2022-07-29T05:23:37.467Z,18.61
2022-07-29T05:26:04.587Z,18.65
2022-07-29T05:28:34.338Z,18.69
2022-07-29T05:31:01.661Z,18.71
2022-07-29T05:33:36.228Z,18.75
2022-07-29T05:36:06.581Z,18.75
2022-07-29T05:38:34.098Z,18.76
2022-07-29T05:41:01.240Z,18.80
2022-07-29T05:43:28.688Z,18.82
2022-07-29T05:45:56.121Z,18.89
2022-07-29T05:48:23.258Z,18.98
2022-07-29T05:50:50.332Z,19.04
2022-07-29T05:53:19.346Z,19.17
2022-07-29T05:55:51.297Z,19.39
2022-07-29T05:58:18.538Z,19.75
2022-07-29T06:00:45.794Z,20.01
2022-07-29T06:03:27.888Z,20.15
2022-07-29T06:05:55.013Z,20.40
2022-07-29T06:08:22.066Z,20.53
2022-07-29T06:10:52.021Z,20.73
2022-07-29T06:13:20.864Z,20.89
2022-07-29T06:15:47.984Z,20.92
2022-07-29T06:18:15.181Z,21.19
2022-07-29T06:20:42.298Z,21.38
2022-07-29T06:23:10.880Z,21.62
2022-07-29T06:25:38.536Z,21.77
2022-07-29T06:28:05.740Z,21.98
2022-07-29T06:31:22.918Z,22.23
2022-07-29T06:33:50.055Z,22.63
2022-07-29T06:36:17.134Z,22.78
2022-07-29T06:38:49.523Z,22.88
2022-07-29T06:41:19.018Z,23.09
2022-07-29T06:43:51.754Z,23.41
2022-07-29T06:46:20.564Z,23.70
2022-07-29T06:48:48.711Z,23.82
2022-07-29T06:51:16.325Z,23.98
2022-07-29T06:54:00.216Z,23.85
2022-07-29T06:56:31.442Z,23.38
2022-07-29T06:58:58.699Z,23.52
2022-07-29T07:01:26.002Z,23.64
2022-07-29T07:03:53.118Z,23.66
2022-07-29T07:06:49.014Z,23.67
2022-07-29T07:09:16.053Z,23.88
2022-07-29T07:11:46.138Z,24.08
2022-07-29T07:14:41.958Z,24.14
2022-07-29T07:17:09.210Z,24.40
2022-07-29T07:20:01.771Z,24.39
2022-07-29T07:22:28.852Z,24.65
2022-07-29T07:24:55.954Z,24.95
2022-07-29T07:27:47.713Z,25.03
2022-07-29T07:30:14.831Z,25.10
2022-07-29T07:32:41.876Z,24.98
2022-07-29T07:35:09.614Z,25.04
2022-07-29T07:37:36.776Z,25.13
2022-07-29T07:40:04.501Z,25.09
2022-07-29T07:42:51.929Z,24.97
2022-07-29T07:45:19.145Z,25.16
2022-07-29T07:47:46.165Z,25.23
2022-07-29T07:50:18.438Z,25.53
2022-07-29T07:52:50.397Z,25.87
2022-07-29T07:55:17.567Z,25.96
2022-07-29T07:57:45.198Z,26.43
2022-07-29T08:00:13.982Z,26.71
2022-07-29T08:02:41.599Z,27.01
2022-07-29T08:05:17.823Z,27.36
2022-07-29T08:07:46.615Z,27.65
2022-07-29T08:10:18.556Z,27.87
2022-07-29T08:15:30.909Z,27.83
2022-07-29T08:17:58.140Z,28.18
2022-07-29T08:20:25.260Z,28.34
2022-07-29T08:22:54.498Z,27.88
2022-07-29T08:25:21.691Z,27.62
2022-07-29T08:27:49.140Z,27.84
2022-07-29T08:30:16.436Z,27.89
2022-07-29T08:32:53.657Z,28.25
2022-07-29T08:35:22.159Z,28.11
2022-07-29T08:37:49.416Z,28.19
2022-07-29T08:40:16.587Z,28.61
2022-07-29T08:42:43.790Z,28.60
2022-07-29T08:45:11.174Z,28.77
2022-07-29T08:47:40.663Z,28.61
2022-07-29T08:50:08.534Z,28.79
2022-07-29T08:52:37.258Z,28.89
2022-07-29T08:55:05.395Z,28.48
2022-07-29T08:57:33.666Z,28.21
2022-07-29T09:00:08.023Z,28.19
2022-07-29T09:02:41.236Z,28.10
2022-07-29T09:05:51.989Z,27.87
2022-07-29T09:08:21.205Z,27.98
2022-07-29T09:10:48.808Z,28.09
2022-07-29T09:13:15.950Z,27.88
2022-07-29T09:19:48.649Z,28.28
2022-07-29T09:22:30.076Z,28.18
2022-07-29T09:29:38.517Z,28.60
2022-07-29T09:32:07.816Z,29.04
2022-07-29T09:34:38.437Z,28.97
2022-07-29T09:37:09.280Z,28.77
2022-07-29T09:40:01.660Z,28.61
2022-07-29T09:42:30.205Z,28.79
2022-07-29T09:44:57.285Z,28.70
2022-07-29T09:47:40.915Z,28.58
2022-07-29T09:53:40.833Z,28.53
2022-07-29T09:56:55.231Z,28.94
2022-07-29T09:59:25.308Z,29.19
2022-07-29T10:02:22.729Z,29.26
2022-07-29T10:05:17.887Z,28.85
2022-07-29T10:07:53.183Z,29.10
2022-07-29T10:10:31.262Z,29.47
2022-07-29T10:13:23.859Z,29.79
2022-07-29T10:15:52.217Z,29.45
2022-07-29T10:18:20.905Z,29.75
2022-07-29T10:20:49.126Z,29.64
2022-07-29T10:23:19.621Z,29.45
2022-07-29T10:25:46.970Z,29.37
2022-07-29T10:28:21.422Z,29.39
2022-07-29T10:30:53.910Z,29.78
2022-07-29T10:33:50.423Z,29.64
2022-07-29T10:40:34.001Z,29.41
2022-07-29T10:43:07.529Z,29.26
2022-07-29T10:45:34.769Z,29.76
2022-07-29T10:48:09.813Z,30.16
2022-07-29T10:51:04.575Z,30.20
2022-07-29T10:53:48.382Z,29.79
2022-07-29T10:56:25.339Z,30.32
2022-07-29T10:59:11.276Z,30.44
2022-07-29T11:01:39.117Z,29.67
2022-07-29T11:04:36.134Z,29.70
2022-07-29T11:07:06.053Z,29.81
2022-07-29T11:15:03.003Z,29.37
2022-07-29T11:17:53.090Z,29.15
2022-07-29T11:20:33.187Z,29.31
2022-07-29T11:23:00.416Z,29.55
2022-07-29T11:25:50.306Z,29.44
2022-07-29T11:28:23.108Z,29.58
2022-07-29T11:31:18.723Z,29.13
2022-07-29T11:36:59.489Z,29.00
2022-07-29T11:39:52.917Z,28.93
2022-07-29T11:42:28.188Z,28.53
2022-07-29T11:45:41.397Z,27.76
2022-07-29T11:48:28.590Z,27.09
2022-07-29T11:50:58.173Z,26.44
2022-07-29T11:53:29.282Z,26.39
2022-07-29T11:55:59.882Z,26.22
2022-07-29T11:58:28.288Z,26.14
2022-07-29T12:00:56.261Z,26.02
2022-07-29T12:03:50.785Z,25.68
2022-07-29T12:06:21.092Z,25.26
2022-07-29T12:07:03.416Z,28.95
2022-07-29T12:08:59.244Z,25.15
2022-07-29T12:15:46.836Z,24.92
2022-07-29T12:19:12.898Z,24.72
2022-07-29T12:26:21.945Z,23.18
2022-07-29T12:28:52.912Z,22.52
2022-07-29T12:31:42.836Z,21.62
2022-07-29T12:34:09.043Z,21.61
2022-07-29T12:36:37.268Z,21.85
2022-07-29T12:39:10.025Z,21.80
2022-07-29T12:41:37.168Z,21.77
2022-07-29T12:44:31.316Z,21.99
2022-07-29T12:47:05.053Z,21.45
2022-07-29T12:49:32.195Z,21.29
2022-07-29T12:52:24.132Z,21.11
2022-07-29T12:54:51.300Z,21.08
2022-07-29T12:57:20.135Z,21.14
2022-07-29T13:03:02.481Z,21.30
2022-07-29T13:05:48.534Z,21.55
2022-07-29T13:17:51.085Z,21.42
2022-07-29T13:20:20.052Z,21.40
2022-07-29T13:23:40.150Z,21.42
2022-07-29T13:26:08.698Z,21.41
2022-07-29T13:28:36.223Z,21.43
2022-07-29T13:31:03.493Z,21.36
2022-07-29T13:33:32.154Z,21.31
2022-07-29T13:36:01.692Z,21.37
2022-07-29T13:38:30.928Z,21.52
2022-07-29T13:40:58.811Z,21.69
2022-07-29T13:44:11.482Z,21.86
2022-07-29T13:46:39.506Z,21.96
2022-07-29T13:49:07.381Z,22.07
2022-07-29T13:51:34.499Z,22.13
2022-07-29T13:54:01.609Z,22.26
2022-07-29T13:56:29.746Z,22.35
2022-07-29T13:58:57.793Z,22.49
2022-07-29T14:01:25.567Z,22.56
2022-07-29T14:03:52.748Z,22.67
2022-07-29T14:06:20.135Z,22.73
2022-07-29T14:08:49.400Z,22.77
2022-07-29T14:11:16.544Z,22.84
2022-07-29T14:13:43.619Z,22.94
2022-07-29T14:16:10.862Z,23.00
2022-07-29T14:18:38.003Z,23.07
2022-07-29T14:21:05.131Z,23.09
2022-07-29T14:23:32.356Z,23.11
2022-07-29T14:25:59.439Z,23.10
2022-07-29T14:28:51.978Z,23.10
2022-07-29T14:31:19.065Z,23.19
2022-07-29T14:33:49.307Z,23.14
2022-07-29T14:36:16.664Z,23.16
2022-07-29T14:38:43.882Z,23.11
2022-07-29T14:41:10.980Z,23.11
2022-07-29T14:43:38.159Z,23.00
2022-07-29T14:46:08.386Z,22.86
2022-07-29T14:48:36.079Z,22.84
2022-07-29T14:51:05.115Z,22.78
2022-07-29T14:53:33.057Z,22.79
2022-07-29T14:56:10.387Z,22.72
2022-07-29T14:58:51.497Z,22.79
2022-07-29T15:01:20.690Z,22.76
2022-07-29T15:03:47.809Z,22.78
2022-07-29T15:06:14.942Z,22.83
2022-07-29T15:08:42.010Z,22.81
2022-07-29T15:11:09.190Z,22.79
2022-07-29T15:13:36.289Z,22.82
2022-07-29T15:16:03.476Z,22.88
2022-07-29T15:18:31.010Z,22.88
2022-07-29T15:21:01.422Z,22.94
2022-07-29T15:23:29.747Z,22.93
2022-07-29T15:25:56.874Z,22.98
2022-07-29T15:28:23.958Z,22.94
2022-07-29T15:30:51.078Z,22.94
2022-07-29T15:33:18.778Z,22.98
2022-07-29T15:35:46.063Z,22.96
2022-07-29T15:47:38.275Z,23.04
2022-07-29T15:50:05.679Z,23.08
2022-07-29T15:52:32.748Z,23.09
2022-07-29T15:55:00.323Z,23.12
2022-07-29T15:57:27.373Z,23.10
2022-07-29T15:59:55.354Z,23.09
2022-07-29T16:02:47.808Z,23.15
2022-07-29T16:05:14.986Z,23.09
2022-07-29T16:07:42.057Z,23.02
2022-07-29T16:10:37.322Z,23.02
2022-07-29T16:13:55.276Z,22.94
2022-07-29T16:16:23.015Z,22.90
2022-07-29T16:18:51.245Z,22.93
2022-07-29T16:21:18.347Z,22.88
2022-07-29T16:24:14.239Z,22.84
2022-07-29T16:26:41.416Z,22.80
2022-07-29T16:29:08.531Z,22.84
2022-07-29T16:31:35.682Z,22.86
2022-07-29T16:34:02.837Z,22.82
2022-07-29T16:36:30.035Z,22.78
2022-07-29T16:38:57.215Z,22.63
2022-07-29T16:41:24.339Z,22.44
2022-07-29T16:43:51.483Z,22.23
2022-07-29T16:46:19.384Z,22.11
2022-07-29T16:48:47.914Z,21.91
2022-07-29T16:51:16.156Z,21.77
2022-07-29T16:53:52.407Z,21.62
2022-07-29T16:56:45.399Z,21.53
2022-07-29T16:59:12.457Z,21.48
2022-07-29T17:01:39.656Z,21.27
2022-07-29T17:04:06.740Z,21.11
2022-07-29T17:06:37.745Z,20.81
2022-07-29T17:09:05.686Z,20.38
2022-07-29T17:11:53.425Z,20.45
2022-07-29T17:14:24.199Z,20.29
2022-07-29T17:17:00.653Z,20.15
2022-07-29T17:19:30.124Z,20.20
2022-07-29T17:22:06.449Z,20.25
2022-07-29T17:24:34.109Z,19.99
2022-07-29T17:27:01.707Z,19.98
2022-07-29T17:29:54.168Z,19.99
2022-07-29T17:36:24.347Z,19.68
2022-07-29T17:38:56.554Z,19.59
2022-07-29T17:41:25.540Z,19.45
2022-07-29T17:43:57.667Z,19.60
2022-07-29T17:46:50.749Z,19.59
2022-07-29T17:49:19.154Z,19.62
2022-07-29T17:51:46.455Z,19.61
2022-07-29T17:54:13.834Z,19.58
2022-07-29T17:56:41.587Z,19.24
2022-07-29T17:59:10.445Z,19.28
2022-07-29T18:01:41.403Z,19.05
2022-07-29T18:04:08.882Z,18.92
2022-07-29T18:06:36.149Z,18.65
2022-07-29T18:09:03.475Z,18.56
2022-07-29T18:16:20.055Z,18.41
2022-07-29T18:28:00.742Z,18.70
2022-07-29T18:30:28.658Z,18.79
2022-07-29T18:33:20.123Z,18.90
2022-07-29T18:35:46.269Z,19.14
2022-07-29T18:38:13.429Z,19.20
2022-07-29T18:40:42.043Z,19.22
2022-07-29T18:43:09.243Z,19.37
2022-07-29T18:45:36.385Z,19.48
2022-07-29T18:48:13.225Z,19.38
2022-07-29T18:50:41.387Z,19.48
2022-07-29T18:53:08.761Z,19.53
2022-07-29T18:56:47.076Z,19.57
2022-07-29T18:59:22.217Z,19.60
2022-07-29T19:03:15.213Z,19.69
2022-07-29T19:06:30.510Z,19.84
2022-07-29T19:08:57.581Z,19.91
2022-07-29T19:11:28.781Z,19.92
2022-07-29T19:14:42.021Z,19.96
2022-07-29T19:17:09.157Z,19.98
2022-07-29T19:19:36.204Z,19.98
2022-07-29T19:22:03.320Z,19.97
2022-07-29T19:24:30.392Z,19.97
2022-07-29T19:26:57.835Z,19.96
2022-07-29T19:29:26.493Z,19.94
2022-07-29T19:31:53.721Z,19.91
2022-07-29T19:34:20.853Z,19.84
2022-07-29T19:36:47.931Z,19.81
2022-07-29T19:39:15.417Z,19.74
2022-07-29T19:41:42.536Z,19.70
2022-07-29T19:44:11.284Z,19.68
2022-07-29T19:46:41.585Z,19.57
2022-07-29T19:49:17.008Z,19.58
2022-07-29T19:51:44.178Z,19.56
2022-07-29T19:54:36.006Z,19.54
2022-07-29T19:57:28.007Z,19.57
2022-07-29T20:00:08.435Z,19.56
2022-07-29T20:02:39.219Z,19.53
2022-07-29T20:05:06.724Z,19.57
2022-07-29T20:07:34.408Z,19.57
2022-07-29T20:10:01.548Z,19.58
2022-07-29T20:12:28.704Z,19.59
2022-07-29T20:14:55.886Z,19.59
2022-07-29T20:17:23.030Z,19.61
2022-07-29T20:19:50.536Z,19.59
2022-07-29T20:22:21.171Z,19.61
2022-07-29T20:24:48.832Z,19.57
2022-07-29T20:27:15.956Z,19.57
2022-07-29T20:29:43.054Z,19.53
2022-07-29T20:32:11.988Z,19.53
2022-07-29T20:34:41.177Z,19.49
2022-07-29T20:37:11.243Z,19.44
2022-07-29T20:39:38.325Z,19.43
2022-07-29T20:42:05.867Z,19.42
2022-07-29T20:44:32.950Z,19.44
2022-07-29T20:47:00.229Z,19.48
2022-07-29T20:49:27.686Z,19.45
2022-07-29T20:51:54.791Z,19.48
2022-07-29T20:54:21.875Z,19.48
2022-07-29T20:56:48.964Z,19.51
2022-07-29T20:59:17.664Z,19.53
2022-07-29T21:01:44.901Z,19.51
2022-07-29T21:04:12.115Z,19.43
2022-07-29T21:06:39.200Z,19.38
2022-07-29T21:09:06.251Z,19.35
2022-07-29T21:11:43.572Z,19.36
2022-07-29T21:14:20.657Z,19.39
2022-07-29T21:16:47.716Z,19.41
2022-07-29T21:19:14.829Z,19.37
2022-07-29T21:21:41.900Z,19.38
2022-07-29T21:24:08.982Z,19.38
2022-07-29T21:26:39.398Z,19.36
2022-07-29T21:29:06.587Z,19.33
2022-07-29T21:31:33.636Z,19.29
2022-07-29T21:34:00.725Z,19.29
2022-07-29T21:36:47.862Z,19.26
2022-07-29T21:39:14.843Z,19.24
2022-07-29T21:41:41.891Z,19.26
2022-07-29T21:44:08.986Z,19.27
2022-07-29T21:46:36.725Z,19.29
2022-07-29T21:49:03.953Z,19.30
2022-07-29T21:51:31.020Z,19.31
2022-07-29T21:53:58.106Z,19.27
2022-07-29T21:56:27.807Z,19.24
2022-07-29T21:58:55.384Z,19.18
2022-07-29T22:01:22.644Z,19.15
2022-07-29T22:03:49.753Z,19.11
2022-07-29T22:06:18.130Z,19.06
2022-07-29T22:08:45.811Z,19.01
2022-07-29T22:14:55.542Z,18.78
2022-07-29T22:17:25.884Z,18.73
2022-07-29T22:19:53.546Z,18.65
2022-07-29T22:22:20.916Z,18.52
2022-07-29T22:25:38.228Z,18.53
2022-07-29T22:28:05.292Z,18.51
2022-07-29T22:30:32.366Z,18.52
2022-07-29T22:32:59.462Z,18.56
2022-07-29T22:35:26.557Z,18.58
2022-07-29T22:37:54.187Z,18.63
2022-07-29T22:40:21.319Z,18.71
2022-07-29T22:42:48.498Z,18.72
2022-07-29T22:45:15.579Z,18.73
2022-07-29T22:47:47.795Z,18.71
2022-07-29T22:50:16.163Z,18.63
2022-07-29T22:52:43.263Z,18.58
2022-07-29T22:55:10.417Z,18.42
2022-07-29T22:57:37.634Z,18.42
2022-07-29T23:00:05.654Z,18.43
2022-07-29T23:02:32.736Z,18.46
2022-07-29T23:04:59.773Z,18.49
2022-07-29T23:07:27.161Z,18.49
2022-07-29T23:09:54.280Z,18.47
2022-07-29T23:12:21.350Z,18.50
2022-07-29T23:14:48.432Z,18.48
2022-07-29T23:17:15.536Z,18.47
2022-07-29T23:19:42.614Z,18.46
2022-07-29T23:22:09.741Z,18.45
2022-07-29T23:24:36.834Z,18.46
2022-07-29T23:27:04.109Z,18.44
2022-07-29T23:29:36.475Z,18.45
2022-07-29T23:32:04.065Z,18.44
2022-07-29T23:34:31.190Z,18.42
2022-07-29T23:36:58.533Z,18.43
2022-07-29T23:39:51.267Z,18.38
2022-07-29T23:42:18.561Z,18.34
2022-07-29T23:44:45.583Z,18.32
2022-07-29T23:47:13.647Z,18.32
2022-07-29T23:49:40.802Z,18.32
2022-07-29T23:52:07.859Z,18.29
2022-07-29T23:54:35.121Z,18.28
2022-07-29T23:57:02.668Z,18.26
2022-07-29T23:59:30.011Z,18.26
